createdAt,value
2022-12-18T00:00:24.426Z,100.00
2022-12-18T00:02:54.092Z,100.00
2022-12-18T00:05:23.681Z,100.00
2022-12-18T00:07:55.093Z,100.00
2022-12-18T00:10:25.828Z,100.00
2022-12-18T00:12:53.124Z,100.00
2022-12-18T00:15:20.910Z,100.00
2022-12-18T00:17:50.247Z,100.00
2022-12-18T00:20:26.461Z,100.00
2022-12-18T00:22:54.504Z,100.00
2022-12-18T00:25:22.096Z,100.00
2022-12-18T00:27:51.513Z,100.00
2022-12-18T00:30:19.367Z,100.00
2022-12-18T00:32:46.799Z,100.00
2022-12-18T00:35:14.025Z,100.00
2022-12-18T00:37:41.715Z,100.00
2022-12-18T00:40:09.625Z,100.00
2022-12-18T00:42:56.555Z,100.00
2022-12-18T00:45:30.930Z,100.00
2022-12-18T00:48:00.484Z,100.00
2022-12-18T00:50:27.813Z,100.00
2022-12-18T00:52:57.247Z,100.00
2022-12-18T00:55:24.579Z,100.00
2022-12-18T00:57:53.336Z,100.00
2022-12-18T01:00:25.290Z,100.00
2022-12-18T01:02:52.628Z,100.00
2022-12-18T01:05:19.977Z,100.00
2022-12-18T01:07:47.143Z,100.00
2022-12-18T01:10:14.943Z,100.00
2022-12-18T01:12:42.271Z,100.00
2022-12-18T01:15:17.943Z,100.00
2022-12-18T01:17:45.164Z,99.99
2022-12-18T01:20:13.721Z,99.84
2022-12-18T01:22:43.393Z,99.98
2022-12-18T01:25:10.763Z,100.00
2022-12-18T01:27:40.259Z,100.00
2022-12-18T01:30:08.274Z,99.95
2022-12-18T01:32:36.728Z,100.00
2022-12-18T01:35:07.288Z,99.98
2022-12-18T01:37:34.630Z,100.00
2022-12-18T01:40:01.945Z,99.57
2022-12-18T01:42:31.876Z,99.54
2022-12-18T01:45:07.534Z,99.52
2022-12-18T01:47:50.016Z,99.49
2022-12-18T01:50:44.961Z,99.32
2022-12-18T01:53:12.063Z,99.30
2022-12-18T01:55:49.314Z,99.40
2022-12-18T01:58:17.289Z,99.35
2022-12-18T02:00:44.567Z,99.24
2022-12-18T02:03:12.854Z,99.03
2022-12-18T02:05:58.394Z,98.83
2022-12-18T02:08:39.615Z,99.05
2022-12-18T02:11:16.453Z,99.17
2022-12-18T02:14:11.226Z,99.26
2022-12-18T02:16:50.685Z,99.21
2022-12-18T02:19:23.337Z,99.06
2022-12-18T02:22:17.939Z,99.15
2022-12-18T02:25:19.341Z,99.00
2022-12-18T02:27:54.052Z,99.07
2022-12-18T02:30:27.203Z,98.98
2022-12-18T02:32:56.812Z,99.18
2022-12-18T02:35:29.978Z,98.66
2022-12-18T02:38:04.016Z,98.62
2022-12-18T02:40:39.460Z,98.82
2022-12-18T02:43:17.173Z,98.78
2022-12-18T02:45:56.855Z,98.74
2022-12-18T02:48:35.983Z,98.75
2022-12-18T02:51:16.341Z,98.57
2022-12-18T02:54:19.744Z,98.64
2022-12-18T02:56:54.888Z,98.51
2022-12-18T02:59:33.625Z,98.61
2022-12-18T03:02:07.205Z,98.35
2022-12-18T03:04:48.268Z,98.49
2022-12-18T03:07:24.358Z,98.39
2022-12-18T03:09:56.322Z,98.41
2022-12-18T03:12:38.782Z,98.29
2022-12-18T03:15:17.633Z,98.35
2022-12-18T03:17:53.048Z,98.34
2022-12-18T03:20:25.570Z,98.42
2022-12-18T03:23:03.754Z,97.99
2022-12-18T03:25:33.541Z,97.83
2022-12-18T03:28:07.341Z,97.64
2022-12-18T03:30:40.487Z,97.78
2022-12-18T03:33:24.986Z,97.78
2022-12-18T03:35:54.649Z,97.62
2022-12-18T03:38:22.351Z,97.52
2022-12-18T03:40:59.513Z,97.63
2022-12-18T03:43:29.862Z,97.34
2022-12-18T03:46:08.753Z,97.60
2022-12-18T03:48:43.340Z,97.34
2022-12-18T03:51:21.244Z,97.30
2022-12-18T03:54:05.998Z,97.40
2022-12-18T03:56:46.295Z,97.39
2022-12-18T03:59:16.386Z,97.48
2022-12-18T04:01:50.101Z,97.54
2022-12-18T04:04:27.959Z,97.33
2022-12-18T04:06:56.732Z,97.54
2022-12-18T04:09:26.032Z,97.29
2022-12-18T04:11:54.095Z,97.38
2022-12-18T04:14:21.547Z,97.38
2022-12-18T04:16:55.241Z,97.32
2022-12-18T04:19:28.622Z,97.31
2022-12-18T04:21:56.297Z,97.17
2022-12-18T04:24:23.721Z,97.09
2022-12-18T04:27:05.042Z,96.97
2022-12-18T04:29:41.927Z,97.08
2022-12-18T04:32:13.682Z,96.97
2022-12-18T04:34:43.283Z,97.15
2022-12-18T04:37:10.480Z,96.84
2022-12-18T04:39:37.892Z,97.06
2022-12-18T04:42:10.724Z,96.85
2022-12-18T04:44:37.970Z,97.11
2022-12-18T04:47:05.279Z,96.92
2022-12-18T04:49:32.583Z,97.08
2022-12-18T04:52:03.011Z,97.03
2022-12-18T04:54:30.466Z,97.00
2022-12-18T04:56:57.694Z,97.08
2022-12-18T04:59:24.996Z,96.68
2022-12-18T05:01:54.689Z,96.81
2022-12-18T05:04:24.098Z,96.89
2022-12-18T05:06:51.201Z,96.75
2022-12-18T05:09:18.688Z,96.65
2022-12-18T05:11:51.402Z,96.42
2022-12-18T05:14:21.025Z,96.34
2022-12-18T05:16:48.281Z,96.45
2022-12-18T05:19:17.879Z,96.15
2022-12-18T05:21:45.037Z,96.23
2022-12-18T05:24:17.946Z,96.34
2022-12-18T05:26:47.478Z,96.12
2022-12-18T05:29:15.010Z,96.41
2022-12-18T05:31:44.438Z,96.43
2022-12-18T05:34:12.044Z,96.25
2022-12-18T05:36:42.574Z,96.14
2022-12-18T05:39:10.435Z,96.14
2022-12-18T05:41:39.940Z,95.97
2022-12-18T05:44:09.108Z,96.10
2022-12-18T05:46:38.885Z,96.28
2022-12-18T05:49:08.298Z,96.36
2022-12-18T05:51:35.477Z,96.29
2022-12-18T05:54:02.895Z,96.19
2022-12-18T05:56:30.462Z,96.52
2022-12-18T05:58:57.771Z,96.67
2022-12-18T06:01:27.802Z,97.08
2022-12-18T06:03:56.247Z,97.21
2022-12-18T06:06:27.992Z,97.58
2022-12-18T06:08:56.304Z,97.57
2022-12-18T06:11:26.415Z,97.57
2022-12-18T06:13:58.687Z,97.81
2022-12-18T06:16:32.069Z,97.45
2022-12-18T06:19:01.000Z,97.72
2022-12-18T06:21:32.844Z,97.91
2022-12-18T06:24:01.671Z,97.82
2022-12-18T06:26:31.052Z,98.01
2022-12-18T06:29:00.754Z,97.89
2022-12-18T06:31:28.143Z,97.68
2022-12-18T06:33:59.453Z,97.33
2022-12-18T06:36:26.535Z,97.48
2022-12-18T06:38:53.724Z,97.52
2022-12-18T06:41:22.396Z,97.77
2022-12-18T06:43:59.353Z,97.66
2022-12-18T06:46:27.405Z,97.95
2022-12-18T06:48:56.964Z,97.63
2022-12-18T06:51:25.601Z,97.98
2022-12-18T06:53:55.499Z,97.83
2022-12-18T06:56:24.844Z,97.64
2022-12-18T06:58:54.856Z,97.71
2022-12-18T07:01:25.057Z,97.50
2022-12-18T07:03:55.448Z,97.52
2022-12-18T07:06:26.317Z,97.59
2022-12-18T07:08:56.351Z,97.83
2022-12-18T07:11:23.907Z,98.05
2022-12-18T07:13:51.108Z,98.18
2022-12-18T07:16:25.201Z,97.98
2022-12-18T07:18:55.845Z,98.08
2022-12-18T07:21:28.236Z,98.14
2022-12-18T07:23:56.971Z,98.21
2022-12-18T07:26:27.420Z,98.14
2022-12-18T07:28:58.691Z,98.18
2022-12-18T07:31:26.962Z,98.06
2022-12-18T07:33:56.881Z,98.14
2022-12-18T07:36:28.845Z,98.10
2022-12-18T07:39:01.520Z,98.09
2022-12-18T07:41:31.281Z,97.72
2022-12-18T07:44:15.295Z,97.44
2022-12-18T07:49:26.141Z,97.35
2022-12-18T07:51:57.033Z,97.52
2022-12-18T07:54:25.435Z,97.54
2022-12-18T07:56:55.341Z,97.55
2022-12-18T07:59:22.492Z,97.66
2022-12-18T08:01:49.926Z,97.75
2022-12-18T08:04:19.705Z,97.46
2022-12-18T08:06:48.297Z,97.21
2022-12-18T08:09:18.303Z,96.97
2022-12-18T08:11:45.610Z,97.11
2022-12-18T08:14:15.753Z,96.80
2022-12-18T08:16:43.120Z,96.95
2022-12-18T08:19:11.382Z,96.93
2022-12-18T08:21:44.967Z,96.92
2022-12-18T08:24:12.190Z,96.60
2022-12-18T08:26:41.517Z,96.62
2022-12-18T08:29:09.802Z,96.78
2022-12-18T08:31:37.245Z,96.89
2022-12-18T08:34:04.435Z,97.01
2022-12-18T08:36:31.689Z,96.75
2022-12-18T08:39:01.158Z,96.91
2022-12-18T08:41:31.391Z,96.83
2022-12-18T08:44:18.471Z,96.97
2022-12-18T08:46:47.991Z,96.96
2022-12-18T08:49:17.276Z,96.86
2022-12-18T08:51:44.620Z,96.73
2022-12-18T08:54:14.573Z,96.79
2022-12-18T08:56:41.760Z,96.66
2022-12-18T08:59:13.168Z,96.57
2022-12-18T09:01:47.916Z,96.58
2022-12-18T09:04:17.629Z,96.60
2022-12-18T09:06:46.868Z,96.66
2022-12-18T09:09:14.516Z,96.55
2022-12-18T09:11:41.711Z,96.53
2022-12-18T09:14:10.435Z,96.68
2022-12-18T09:16:40.095Z,96.54
2022-12-18T09:19:11.162Z,96.65
2022-12-18T09:21:44.819Z,96.70
2022-12-18T09:24:18.687Z,96.62
2022-12-18T09:26:47.603Z,96.66
2022-12-18T09:29:19.227Z,96.65
2022-12-18T09:31:47.563Z,96.52
2022-12-18T09:34:14.892Z,96.27
2022-12-18T09:36:44.275Z,96.40
2022-12-18T09:39:11.564Z,96.48
2022-12-18T09:41:54.539Z,96.42
2022-12-18T09:44:24.670Z,96.22
2022-12-18T09:47:04.335Z,96.30
2022-12-18T09:49:36.032Z,96.17
2022-12-18T09:52:10.384Z,96.12
2022-12-18T09:54:44.539Z,96.06
2022-12-18T09:57:16.459Z,95.89
2022-12-18T09:59:54.056Z,95.86
2022-12-18T10:02:24.601Z,95.55
2022-12-18T10:05:15.202Z,95.34
2022-12-18T10:08:00.535Z,95.49
2022-12-18T10:10:58.582Z,95.33
2022-12-18T10:13:34.852Z,95.45
2022-12-18T10:16:14.185Z,95.00
2022-12-18T10:19:05.791Z,95.35
2022-12-18T10:21:35.636Z,95.44
2022-12-18T10:24:16.021Z,95.64
2022-12-18T10:26:46.063Z,95.62
2022-12-18T10:29:15.218Z,95.43
2022-12-18T10:31:44.926Z,95.46
2022-12-18T10:34:13.201Z,95.49
2022-12-18T10:36:44.118Z,95.34
2022-12-18T10:39:28.341Z,95.39
2022-12-18T10:42:14.143Z,95.61
2022-12-18T10:44:43.376Z,96.14
2022-12-18T10:47:18.905Z,96.03
2022-12-18T10:49:54.062Z,96.63
2022-12-18T10:52:25.082Z,97.04
2022-12-18T10:55:00.432Z,97.34
2022-12-18T10:57:41.838Z,97.62
2022-12-18T11:00:29.165Z,97.86
2022-12-18T11:02:57.503Z,97.82
2022-12-18T11:05:37.724Z,97.88
2022-12-18T11:08:06.310Z,98.05
2022-12-18T11:10:38.768Z,98.23
2022-12-18T11:13:27.524Z,98.33
2022-12-18T11:15:55.008Z,98.63
2022-12-18T11:18:33.338Z,98.09
2022-12-18T11:21:06.534Z,97.05
2022-12-18T11:23:37.212Z,96.80
2022-12-18T11:26:06.960Z,97.13
2022-12-18T11:28:50.671Z,97.44
2022-12-18T11:31:26.787Z,97.35
2022-12-18T11:38:27.217Z,97.59
2022-12-18T11:41:07.423Z,97.60
2022-12-18T11:43:51.140Z,97.48
2022-12-18T11:46:34.921Z,97.54
2022-12-18T11:49:28.975Z,97.29
2022-12-18T11:52:41.582Z,97.35
2022-12-18T11:55:13.274Z,97.61
2022-12-18T11:57:53.264Z,97.60
2022-12-18T12:00:24.302Z,97.38
2022-12-18T12:03:12.444Z,97.25
2022-12-18T12:06:26.742Z,97.55
2022-12-18T12:09:01.379Z,97.46
2022-12-18T12:11:43.310Z,97.58
2022-12-18T12:14:17.186Z,97.69
2022-12-18T12:17:06.618Z,97.71
2022-12-18T12:19:51.893Z,97.64
2022-12-18T12:22:34.360Z,97.55
2022-12-18T12:25:40.558Z,97.69
2022-12-18T12:28:26.365Z,97.70
2022-12-18T12:31:18.032Z,97.83
2022-12-18T12:33:58.562Z,97.80
2022-12-18T12:36:44.189Z,97.95
2022-12-18T12:39:24.885Z,97.79
2022-12-18T12:42:11.342Z,98.02
2022-12-18T12:44:56.391Z,98.08
2022-12-18T12:47:29.429Z,98.15
2022-12-18T12:49:59.585Z,98.34
2022-12-18T12:52:29.806Z,98.29
2022-12-18T12:55:03.060Z,98.30
2022-12-18T12:57:43.948Z,98.31
2022-12-18T13:00:18.745Z,98.37
2022-12-18T13:03:02.836Z,98.59
2022-12-18T13:05:37.364Z,98.61
2022-12-18T13:08:13.952Z,98.41
2022-12-18T13:10:43.859Z,98.47
2022-12-18T13:13:13.392Z,98.41
2022-12-18T13:15:50.099Z,98.64
2022-12-18T13:18:25.397Z,98.37
2022-12-18T13:21:12.311Z,98.45
2022-12-18T13:23:42.501Z,98.57
2022-12-18T13:26:24.740Z,98.41
2022-12-18T13:28:59.181Z,98.54
2022-12-18T13:31:41.981Z,98.30
2022-12-18T13:34:26.173Z,98.23
2022-12-18T13:36:56.902Z,98.46
2022-12-18T13:39:34.841Z,98.57
2022-12-18T13:42:05.704Z,98.77
2022-12-18T13:44:40.553Z,98.60
2022-12-18T13:47:38.956Z,98.55
2022-12-18T13:50:36.419Z,98.80
2022-12-18T13:53:06.395Z,98.81
2022-12-18T13:55:34.609Z,98.58
2022-12-18T13:58:08.061Z,98.71
2022-12-18T14:00:41.914Z,98.38
2022-12-18T14:03:27.597Z,98.34
2022-12-18T14:06:01.874Z,98.43
2022-12-18T14:08:35.866Z,98.38
2022-12-18T14:11:08.314Z,98.61
2022-12-18T14:13:42.850Z,98.59
2022-12-18T14:16:15.428Z,98.58
2022-12-18T14:18:49.586Z,98.44
2022-12-18T14:21:28.769Z,98.34
2022-12-18T14:24:08.018Z,98.44
2022-12-18T14:26:35.458Z,98.22
2022-12-18T14:29:29.486Z,98.19
2022-12-18T14:32:13.333Z,98.12
2022-12-18T14:34:51.291Z,98.23
2022-12-18T14:37:25.930Z,98.19
2022-12-18T14:40:07.173Z,97.98
2022-12-18T14:42:39.781Z,97.92
2022-12-18T14:45:42.391Z,97.80
2022-12-18T14:48:35.520Z,97.76
2022-12-18T14:51:16.717Z,97.91
2022-12-18T14:53:55.097Z,97.91
2022-12-18T14:56:24.457Z,98.20
2022-12-18T14:58:58.413Z,98.00
2022-12-18T15:02:08.920Z,97.92
2022-12-18T15:04:42.069Z,97.85
2022-12-18T15:07:20.704Z,97.79
2022-12-18T15:10:03.555Z,97.96
2022-12-18T15:12:39.157Z,97.71
2022-12-18T15:15:33.863Z,97.59
2022-12-18T15:18:04.154Z,97.81
2022-12-18T15:20:35.702Z,97.86
2022-12-18T15:23:05.131Z,98.11
2022-12-18T15:25:38.191Z,97.98
2022-12-18T15:28:45.102Z,97.92
2022-12-18T15:31:15.933Z,98.10
2022-12-18T15:33:53.990Z,98.06
2022-12-18T15:36:26.751Z,97.99
2022-12-18T15:39:02.229Z,97.88
2022-12-18T15:41:37.885Z,97.68
2022-12-18T15:44:27.956Z,97.84
2022-12-18T15:46:58.271Z,97.66
2022-12-18T15:49:28.083Z,97.75
2022-12-18T15:52:00.736Z,97.75
2022-12-18T15:55:03.392Z,97.58
2022-12-18T15:57:33.817Z,97.72
2022-12-18T16:00:01.201Z,97.64
2022-12-18T16:02:30.731Z,97.60
2022-12-18T16:04:58.128Z,97.14
2022-12-18T16:07:28.131Z,97.03
2022-12-18T16:10:02.251Z,97.21
2022-12-18T16:12:30.123Z,97.21
2022-12-18T16:14:59.534Z,97.04
2022-12-18T16:17:31.547Z,96.66
2022-12-18T16:20:02.654Z,97.23
2022-12-18T16:22:32.036Z,97.41
2022-12-18T16:25:03.800Z,97.32
2022-12-18T16:27:33.524Z,97.04
2022-12-18T16:30:00.785Z,97.41
2022-12-18T16:32:30.636Z,97.17
2022-12-18T16:35:01.175Z,96.75
2022-12-18T16:37:28.360Z,96.63
2022-12-18T16:39:56.083Z,96.30
2022-12-18T16:42:23.349Z,96.87
2022-12-18T16:44:56.253Z,97.24
2022-12-18T16:47:25.654Z,97.28
2022-12-18T16:49:57.524Z,96.46
2022-12-18T16:52:24.780Z,96.63
2022-12-18T16:54:52.232Z,96.52
2022-12-18T16:57:28.168Z,96.48
2022-12-18T16:59:59.907Z,96.73
2022-12-18T17:02:32.869Z,96.79
2022-12-18T17:05:05.012Z,97.07
2022-12-18T17:07:34.627Z,97.43
2022-12-18T17:10:03.467Z,97.51
2022-12-18T17:12:31.935Z,97.85
2022-12-18T17:15:02.423Z,98.24
2022-12-18T17:17:29.737Z,98.45
2022-12-18T17:20:01.386Z,99.09
2022-12-18T17:22:28.761Z,99.59
2022-12-18T17:24:56.328Z,99.72
2022-12-18T17:27:23.462Z,100.00
2022-12-18T17:29:50.782Z,100.00
2022-12-18T17:32:20.457Z,100.00
2022-12-18T17:34:50.087Z,100.00
2022-12-18T17:37:19.608Z,100.00
2022-12-18T17:39:46.888Z,100.00
2022-12-18T17:42:17.784Z,100.00
2022-12-18T17:44:47.196Z,100.00
2022-12-18T17:47:14.727Z,100.00
2022-12-18T17:49:46.700Z,100.00
2022-12-18T17:52:14.082Z,100.00
2022-12-18T17:54:42.285Z,100.00
2022-12-18T17:57:12.256Z,100.00
2022-12-18T17:59:39.495Z,100.00
2022-12-18T18:02:09.407Z,100.00
2022-12-18T18:04:41.768Z,100.00
2022-12-18T18:07:11.218Z,100.00
2022-12-18T18:09:38.795Z,100.00
2022-12-18T18:12:28.569Z,100.00
2022-12-18T18:14:58.829Z,100.00
2022-12-18T18:17:26.648Z,100.00
2022-12-18T18:19:54.014Z,100.00
2022-12-18T18:22:25.342Z,100.00
2022-12-18T18:25:02.967Z,100.00
2022-12-18T18:27:38.423Z,100.00
2022-12-18T18:30:07.851Z,100.00
2022-12-18T18:32:39.583Z,100.00
2022-12-18T18:35:12.553Z,100.00
2022-12-18T18:37:52.556Z,100.00
2022-12-18T18:40:23.341Z,100.00
2022-12-18T18:42:55.937Z,100.00
2022-12-18T18:45:25.920Z,100.00
2022-12-18T18:47:55.516Z,100.00
2022-12-18T18:50:22.886Z,100.00
2022-12-18T18:52:50.087Z,100.00
2022-12-18T18:55:25.302Z,100.00
2022-12-18T18:57:55.389Z,99.72
2022-12-18T19:00:22.705Z,99.40
2022-12-18T19:02:50.537Z,99.74
2022-12-18T19:05:18.059Z,100.00
2022-12-18T19:07:45.186Z,100.00
2022-12-18T19:10:15.575Z,100.00
2022-12-18T19:13:01.481Z,100.00
2022-12-18T19:15:28.690Z,100.00
2022-12-18T19:17:58.504Z,100.00
2022-12-18T19:20:25.965Z,100.00
2022-12-18T19:22:56.611Z,100.00
2022-12-18T19:25:29.949Z,100.00
2022-12-18T19:28:21.524Z,100.00
2022-12-18T19:30:51.443Z,100.00
2022-12-18T19:33:44.368Z,100.00
2022-12-18T19:36:29.993Z,100.00
2022-12-18T19:39:01.449Z,100.00
2022-12-18T19:41:33.976Z,100.00
2022-12-18T19:44:07.600Z,100.00
2022-12-18T19:46:36.332Z,100.00
2022-12-18T19:49:11.118Z,100.00
2022-12-18T19:51:39.156Z,100.00
2022-12-18T19:54:13.281Z,100.00
2022-12-18T19:56:45.003Z,100.00
2022-12-18T19:59:15.046Z,100.00
2022-12-18T20:01:44.587Z,100.00
2022-12-18T20:04:12.087Z,100.00
2022-12-18T20:06:48.053Z,100.00
2022-12-18T20:09:15.804Z,100.00
2022-12-18T20:11:43.986Z,100.00
2022-12-18T20:14:13.761Z,100.00
2022-12-18T20:16:41.843Z,100.00
2022-12-18T20:19:12.178Z,100.00
2022-12-18T20:21:39.866Z,100.00
2022-12-18T20:24:10.341Z,100.00
2022-12-18T20:26:40.658Z,100.00
2022-12-18T20:29:08.095Z,100.00
2022-12-18T20:31:37.718Z,100.00
2022-12-18T20:34:06.155Z,100.00
2022-12-18T20:36:36.302Z,100.00
2022-12-18T20:39:12.137Z,100.00
2022-12-18T20:41:42.100Z,100.00
2022-12-18T20:44:22.893Z,100.00
2022-12-18T20:46:54.269Z,100.00
2022-12-18T20:49:25.498Z,100.00
2022-12-18T20:51:57.230Z,100.00
2022-12-18T20:54:26.852Z,100.00
2022-12-18T20:56:54.450Z,100.00
2022-12-18T20:59:25.661Z,100.00
2022-12-18T21:01:55.538Z,100.00
2022-12-18T21:04:23.551Z,100.00
2022-12-18T21:06:56.800Z,100.00
2022-12-18T21:09:34.242Z,100.00
2022-12-18T21:12:33.449Z,100.00
2022-12-18T21:15:09.861Z,100.00
2022-12-18T21:17:41.118Z,100.00
2022-12-18T21:20:17.299Z,100.00
2022-12-18T21:22:49.273Z,100.00
2022-12-18T21:25:16.880Z,100.00
2022-12-18T21:27:44.311Z,100.00
2022-12-18T21:30:12.270Z,100.00
2022-12-18T21:32:39.899Z,100.00
2022-12-18T21:35:07.460Z,100.00
2022-12-18T21:37:36.806Z,100.00
2022-12-18T21:40:06.011Z,100.00
2022-12-18T21:42:54.417Z,100.00
2022-12-18T21:45:22.281Z,100.00
2022-12-18T21:47:50.846Z,100.00
2022-12-18T21:50:18.088Z,100.00
2022-12-18T21:52:46.473Z,100.00
2022-12-18T21:55:20.781Z,100.00
2022-12-18T21:57:48.177Z,100.00
2022-12-18T22:00:19.663Z,100.00
2022-12-18T22:02:59.922Z,100.00
2022-12-18T22:05:36.795Z,100.00
2022-12-18T22:08:07.432Z,100.00
2022-12-18T22:10:38.311Z,100.00
2022-12-18T22:13:07.324Z,100.00
2022-12-18T22:15:34.668Z,100.00
2022-12-18T22:18:04.904Z,100.00
2022-12-18T22:20:32.418Z,100.00
2022-12-18T22:23:02.878Z,100.00
2022-12-18T22:25:35.999Z,100.00
2022-12-18T22:28:26.784Z,100.00
2022-12-18T22:30:59.058Z,100.00
2022-12-18T22:33:27.033Z,100.00
2022-12-18T22:35:56.647Z,100.00
2022-12-18T22:38:23.790Z,100.00
2022-12-18T22:40:51.359Z,100.00
2022-12-18T22:43:20.876Z,100.00
2022-12-18T22:45:50.647Z,100.00
2022-12-18T22:48:20.348Z,100.00
2022-12-18T22:50:47.520Z,100.00
2022-12-18T22:53:16.356Z,100.00
2022-12-18T22:55:44.747Z,100.00
2022-12-18T22:58:11.935Z,100.00
2022-12-18T23:00:41.347Z,100.00
2022-12-18T23:03:09.752Z,100.00
2022-12-18T23:05:39.380Z,100.00
2022-12-18T23:08:06.526Z,100.00
2022-12-18T23:10:37.698Z,100.00
2022-12-18T23:13:04.883Z,100.00
2022-12-18T23:15:32.258Z,100.00
2022-12-18T23:18:04.500Z,100.00
2022-12-18T23:20:31.765Z,100.00
2022-12-18T23:23:01.178Z,100.00
2022-12-18T23:25:28.433Z,100.00
2022-12-18T23:27:55.549Z,100.00
2022-12-18T23:30:24.978Z,100.00
2022-12-18T23:32:57.365Z,100.00
2022-12-18T23:35:26.968Z,100.00
2022-12-18T23:37:59.415Z,100.00
2022-12-18T23:40:30.213Z,100.00
2022-12-18T23:43:00.374Z,100.00
2022-12-18T23:45:29.826Z,100.00
2022-12-18T23:47:57.383Z,100.00
2022-12-18T23:50:30.289Z,100.00
2022-12-18T23:53:04.677Z,100.00
2022-12-18T23:55:38.494Z,100.00
2022-12-18T23:58:08.195Z,100.00
